createdAt,value
2017-09-22T00:00:51.544Z,92.40
2017-09-22T00:03:18.976Z,92.80
2017-09-22T00:05:47.195Z,92.40
2017-09-22T00:08:14.639Z,92.40
2017-09-22T00:10:42.078Z,92.50
2017-09-22T00:13:10.284Z,92.50
2017-09-22T00:15:37.716Z,92.50
2017-09-22T00:18:05.151Z,92.60
2017-09-22T00:20:32.599Z,92.40
2017-09-22T00:23:00.077Z,92.40
2017-09-22T00:25:28.286Z,92.50
2017-09-22T00:27:55.719Z,92.50
2017-09-22T00:30:23.170Z,92.60
2017-09-22T00:32:51.375Z,92.60
2017-09-22T00:35:18.809Z,92.60
2017-09-22T00:37:46.253Z,92.70
2017-09-22T00:40:14.453Z,92.80
2017-09-22T00:42:41.897Z,92.80
2017-09-22T00:45:09.328Z,92.80
2017-09-22T00:47:36.762Z,92.80
2017-09-22T00:50:04.200Z,92.90
2017-09-22T00:52:31.643Z,92.70
2017-09-22T00:54:59.071Z,92.70
2017-09-22T00:57:27.279Z,92.50
2017-09-22T00:59:54.711Z,92.50
2017-09-22T01:02:22.155Z,92.50
2017-09-22T01:04:50.367Z,92.40
2017-09-22T01:07:17.804Z,92.40
2017-09-22T01:09:45.999Z,92.30
2017-09-22T01:12:13.437Z,92.30
2017-09-22T01:14:40.869Z,92.20
2017-09-22T01:17:09.073Z,92.10
2017-09-22T01:19:36.521Z,92.10
2017-09-22T01:22:03.957Z,92.00
2017-09-22T01:24:32.152Z,92.00
2017-09-22T01:26:59.593Z,92.00
2017-09-22T01:29:27.790Z,91.90
2017-09-22T01:31:55.245Z,91.90
2017-09-22T01:34:22.675Z,91.60
2017-09-22T01:36:50.875Z,91.60
2017-09-22T01:39:18.311Z,91.60
2017-09-22T01:41:46.513Z,91.70
2017-09-22T01:44:13.961Z,92.00
2017-09-22T01:46:41.398Z,91.80
2017-09-22T01:49:09.597Z,91.70
2017-09-22T01:51:37.024Z,91.70
2017-09-22T01:54:05.228Z,91.90
2017-09-22T01:56:32.656Z,91.90
2017-09-22T01:59:00.856Z,92.40
2017-09-22T02:01:28.292Z,92.10
2017-09-22T02:03:56.493Z,92.10
2017-09-22T02:06:23.925Z,92.10
2017-09-22T02:08:52.128Z,92.20
2017-09-22T02:11:19.566Z,92.20
2017-09-22T02:13:47.769Z,92.10
2017-09-22T02:16:15.198Z,92.40
2017-09-22T02:18:43.413Z,91.80
2017-09-22T02:21:10.844Z,91.80
2017-09-22T02:23:38.285Z,91.80
2017-09-22T02:26:06.490Z,91.70
2017-09-22T02:28:33.936Z,91.70
2017-09-22T02:31:01.364Z,91.70
2017-09-22T02:33:29.582Z,91.60
2017-09-22T02:35:57.024Z,91.60
2017-09-22T02:38:24.453Z,91.70
2017-09-22T02:40:52.691Z,91.90
2017-09-22T02:43:20.099Z,91.90
2017-09-22T02:45:48.301Z,91.90
2017-09-22T02:48:15.739Z,91.90
2017-09-22T02:50:43.188Z,91.80
2017-09-22T02:53:11.391Z,91.80
2017-09-22T02:55:38.829Z,91.80
2017-09-22T02:58:06.260Z,91.80
2017-09-22T03:00:34.473Z,91.80
2017-09-22T03:03:01.906Z,91.80
2017-09-22T03:05:29.336Z,92.50
2017-09-22T03:07:56.769Z,92.60
2017-09-22T03:10:24.204Z,92.90
2017-09-22T03:12:51.636Z,92.50
2017-09-22T03:15:19.068Z,92.60
2017-09-22T03:17:46.522Z,92.70
2017-09-22T03:20:13.951Z,92.20
2017-09-22T03:22:43.924Z,92.70
2017-09-22T03:25:11.380Z,92.30
2017-09-22T03:27:39.837Z,92.30
2017-09-22T03:30:08.037Z,92.20
2017-09-22T03:32:35.464Z,92.20
2017-09-22T03:35:03.861Z,92.20
2017-09-22T03:37:32.067Z,92.00
2017-09-22T03:39:59.497Z,92.00
2017-09-22T03:42:26.942Z,92.00
2017-09-22T03:44:55.140Z,91.80
2017-09-22T03:47:22.600Z,91.80
2017-09-22T03:49:50.037Z,91.80
2017-09-22T03:52:18.246Z,92.00
2017-09-22T03:54:45.673Z,92.00
2017-09-22T03:57:13.882Z,92.10
2017-09-22T03:59:41.320Z,92.10
2017-09-22T04:02:08.785Z,92.10
2017-09-22T04:04:36.216Z,92.20
2017-09-22T04:07:04.421Z,92.20
2017-09-22T04:09:31.848Z,92.20
2017-09-22T04:12:00.053Z,92.50
2017-09-22T04:14:27.497Z,92.50
2017-09-22T04:16:54.929Z,92.60
2017-09-22T04:19:23.121Z,92.70
2017-09-22T04:21:50.552Z,92.70
2017-09-22T04:24:18.751Z,92.60
2017-09-22T04:26:46.240Z,92.60
2017-09-22T04:29:13.763Z,92.70
2017-09-22T04:31:41.256Z,92.60
2017-09-22T04:34:08.690Z,92.70
2017-09-22T04:36:36.131Z,92.70
2017-09-22T04:39:04.333Z,92.80
2017-09-22T04:41:31.792Z,92.80
2017-09-22T04:43:59.252Z,92.80
2017-09-22T04:46:26.689Z,92.90
2017-09-22T04:48:54.178Z,92.90
2017-09-22T04:51:21.593Z,92.90
2017-09-22T04:53:49.795Z,92.80
2017-09-22T04:56:17.227Z,92.80
2017-09-22T04:58:44.834Z,92.70
2017-09-22T05:01:12.268Z,92.50
2017-09-22T05:03:39.713Z,92.30
2017-09-22T05:06:07.150Z,92.20
2017-09-22T05:08:35.468Z,92.20
2017-09-22T05:11:02.901Z,92.20
2017-09-22T05:13:30.341Z,92.30
2017-09-22T05:15:58.608Z,92.40
2017-09-22T05:18:26.803Z,92.50
2017-09-22T05:20:54.283Z,92.20
2017-09-22T05:23:21.751Z,92.20
2017-09-22T05:25:49.206Z,92.50
2017-09-22T05:28:16.621Z,92.20
2017-09-22T05:30:44.818Z,92.10
2017-09-22T05:33:12.253Z,92.10
2017-09-22T05:35:40.458Z,92.00
2017-09-22T05:38:07.931Z,92.00
2017-09-22T05:40:35.349Z,91.80
2017-09-22T05:43:02.794Z,92.00
2017-09-22T05:45:32.088Z,92.00
2017-09-22T05:48:00.286Z,92.00
2017-09-22T05:50:27.720Z,92.00
2017-09-22T05:52:55.923Z,92.00
2017-09-22T05:55:23.357Z,92.00
2017-09-22T05:57:51.551Z,91.90
2017-09-22T06:00:18.993Z,91.90
2017-09-22T06:02:47.212Z,91.60
2017-09-22T06:05:14.653Z,91.60
2017-09-22T06:07:42.076Z,91.60
2017-09-22T06:10:10.282Z,91.80
2017-09-22T06:12:37.713Z,91.80
2017-09-22T06:15:05.921Z,91.60
2017-09-22T06:17:33.348Z,91.60
2017-09-22T06:20:00.784Z,91.60
2017-09-22T06:22:28.222Z,91.60
2017-09-22T06:24:55.709Z,91.80
2017-09-22T06:27:23.906Z,91.80
2017-09-22T06:29:51.341Z,91.80
2017-09-22T06:32:19.542Z,91.90
2017-09-22T06:34:46.972Z,91.90
2017-09-22T06:37:15.178Z,91.90
2017-09-22T06:39:42.621Z,91.90
2017-09-22T06:42:10.053Z,91.80
2017-09-22T06:44:37.508Z,91.90
2017-09-22T06:47:05.712Z,92.30
2017-09-22T06:49:33.300Z,92.10
2017-09-22T06:52:00.734Z,91.90
2017-09-22T06:54:28.160Z,91.70
2017-09-22T06:56:56.377Z,92.00
2017-09-22T06:59:23.841Z,92.00
2017-09-22T07:01:51.287Z,92.30
2017-09-22T07:04:18.730Z,92.30
2017-09-22T07:06:46.163Z,92.40
2017-09-22T07:09:14.364Z,91.80
2017-09-22T07:11:41.798Z,91.80
2017-09-22T07:14:09.996Z,91.50
2017-09-22T07:16:37.434Z,91.50
2017-09-22T07:19:05.629Z,91.70
2017-09-22T07:21:33.086Z,91.60
2017-09-22T07:24:01.264Z,91.20
2017-09-22T07:26:28.720Z,91.20
2017-09-22T07:28:56.140Z,91.40
2017-09-22T07:31:23.577Z,90.40
2017-09-22T07:33:51.063Z,90.40
2017-09-22T07:36:19.271Z,90.30
2017-09-22T07:38:46.874Z,90.30
2017-09-22T07:41:14.312Z,89.40
2017-09-22T07:43:41.758Z,89.20
2017-09-22T07:46:09.203Z,88.70
2017-09-22T07:48:36.633Z,87.60
2017-09-22T07:51:04.838Z,84.60
2017-09-22T07:53:32.281Z,84.60
2017-09-22T07:55:59.708Z,82.50
2017-09-22T07:58:27.143Z,79.50
2017-09-22T08:00:54.577Z,77.20
2017-09-22T08:03:22.023Z,75.90
2017-09-22T08:05:49.461Z,74.60
2017-09-22T08:08:16.893Z,73.30
2017-09-22T08:10:45.098Z,69.90
2017-09-22T08:13:12.566Z,69.80
2017-09-22T08:15:39.997Z,68.10
2017-09-22T08:18:08.208Z,68.00
2017-09-22T08:20:35.645Z,68.00
2017-09-22T08:23:03.088Z,67.80
2017-09-22T08:25:30.519Z,67.30
2017-09-22T08:27:57.956Z,62.40
2017-09-22T08:30:25.437Z,65.60
2017-09-22T08:32:52.885Z,64.30
2017-09-22T08:35:20.316Z,65.30
2017-09-22T08:37:47.759Z,60.80
2017-09-22T08:40:15.186Z,61.50
2017-09-22T08:42:42.648Z,62.20
2017-09-22T08:45:10.088Z,63.10
2017-09-22T08:47:38.284Z,60.00
2017-09-22T08:50:05.745Z,60.00
2017-09-22T08:52:33.180Z,60.70
2017-09-22T08:55:01.389Z,59.20
2017-09-22T08:57:28.821Z,59.20
2017-09-22T08:59:56.268Z,60.10
2017-09-22T09:02:24.541Z,59.80
2017-09-22T09:04:52.750Z,65.20
2017-09-22T09:07:20.194Z,65.10
2017-09-22T09:09:47.648Z,65.40
2017-09-22T09:12:15.081Z,65.40
2017-09-22T09:14:43.285Z,66.00
2017-09-22T09:17:10.716Z,66.00
2017-09-22T09:19:38.922Z,66.00
2017-09-22T09:22:06.353Z,65.90
2017-09-22T09:24:34.563Z,62.50
2017-09-22T09:27:02.001Z,62.50
2017-09-22T09:29:29.449Z,66.00
2017-09-22T09:31:56.876Z,64.30
2017-09-22T09:34:24.317Z,64.90
2017-09-22T09:36:51.757Z,60.10
2017-09-22T09:39:19.202Z,61.60
2017-09-22T09:41:46.633Z,60.00
2017-09-22T09:44:14.073Z,59.90
2017-09-22T09:46:41.513Z,61.20
2017-09-22T09:49:08.945Z,63.40
2017-09-22T09:51:36.386Z,60.60
2017-09-22T09:54:03.812Z,59.90
2017-09-22T09:56:32.020Z,64.00
2017-09-22T09:58:59.460Z,64.00
2017-09-22T10:01:26.917Z,62.20
2017-09-22T10:03:54.341Z,64.80
2017-09-22T10:06:21.786Z,60.40
2017-09-22T10:08:49.229Z,60.50
2017-09-22T10:11:16.679Z,59.90
2017-09-22T10:13:44.116Z,60.00
2017-09-22T10:16:11.561Z,59.90
2017-09-22T10:18:38.999Z,61.10
2017-09-22T10:21:07.204Z,67.70
2017-09-22T10:23:34.653Z,67.70
2017-09-22T10:26:02.076Z,64.50
2017-09-22T10:28:30.276Z,59.10
2017-09-22T10:30:57.722Z,59.10
2017-09-22T10:33:25.926Z,61.60
2017-09-22T10:35:53.367Z,61.60
2017-09-22T10:38:20.812Z,57.60
2017-09-22T10:40:49.024Z,59.10
2017-09-22T10:43:16.463Z,59.10
2017-09-22T10:45:43.952Z,59.20
2017-09-22T10:48:11.419Z,57.60
2017-09-22T10:50:38.880Z,58.00
2017-09-22T10:53:06.315Z,61.60
2017-09-22T10:55:33.756Z,57.90
2017-09-22T10:58:01.197Z,59.10
2017-09-22T11:00:28.634Z,61.80
2017-09-22T11:02:56.919Z,58.00
2017-09-22T11:05:25.121Z,59.70
2017-09-22T11:07:52.577Z,59.70
2017-09-22T11:10:20.040Z,55.50
2017-09-22T11:12:47.548Z,57.40
2017-09-22T11:15:15.806Z,61.10
2017-09-22T11:17:43.236Z,61.10
2017-09-22T11:20:10.689Z,61.50
2017-09-22T11:22:38.120Z,58.90
2017-09-22T11:25:05.598Z,56.90
2017-09-22T11:27:33.035Z,56.00
2017-09-22T11:30:00.564Z,59.70
2017-09-22T11:32:28.792Z,56.90
2017-09-22T11:34:56.228Z,56.80
2017-09-22T11:37:23.664Z,57.10
2017-09-22T11:39:51.935Z,57.60
2017-09-22T11:42:20.207Z,58.70
2017-09-22T11:44:47.637Z,58.60
2017-09-22T11:47:15.101Z,58.40
2017-09-22T11:49:42.540Z,63.30
2017-09-22T11:52:09.987Z,64.30
2017-09-22T11:54:37.421Z,59.80
2017-09-22T11:57:04.857Z,59.20
2017-09-22T11:59:33.137Z,62.40
2017-09-22T12:02:02.331Z,63.20
2017-09-22T12:04:30.528Z,66.10
2017-09-22T12:06:57.967Z,66.80
2017-09-22T12:09:26.170Z,61.60
2017-09-22T12:11:54.662Z,61.60
2017-09-22T12:14:22.088Z,60.80
2017-09-22T12:16:49.528Z,64.90
2017-09-22T12:19:17.745Z,63.00
2017-09-22T12:21:45.185Z,63.20
2017-09-22T12:24:12.628Z,66.90
2017-09-22T12:26:40.820Z,62.20
2017-09-22T12:29:09.270Z,62.20
2017-09-22T12:31:37.465Z,61.50
2017-09-22T12:34:04.909Z,61.40
2017-09-22T12:36:33.100Z,61.90
2017-09-22T12:39:00.537Z,61.90
2017-09-22T12:41:28.772Z,66.50
2017-09-22T12:43:56.208Z,66.50
2017-09-22T12:46:23.642Z,66.90
2017-09-22T12:48:51.081Z,68.60
2017-09-22T12:51:19.292Z,70.80
2017-09-22T12:53:46.701Z,70.70
2017-09-22T12:56:14.146Z,71.40
2017-09-22T12:58:41.580Z,62.70
2017-09-22T13:01:09.036Z,63.10
2017-09-22T13:03:36.492Z,62.10
2017-09-22T13:06:03.931Z,59.10
2017-09-22T13:08:31.398Z,64.10
2017-09-22T13:10:58.824Z,70.60
2017-09-22T13:13:26.257Z,65.00
2017-09-22T13:15:53.684Z,64.50
2017-09-22T13:18:21.232Z,65.00
2017-09-22T13:20:49.663Z,63.30
2017-09-22T13:23:17.864Z,70.30
2017-09-22T13:25:45.395Z,70.30
2017-09-22T13:28:13.593Z,64.70
2017-09-22T13:30:41.032Z,64.70
2017-09-22T13:33:09.231Z,60.00
2017-09-22T13:35:36.696Z,60.00
2017-09-22T13:38:04.105Z,59.60
2017-09-22T13:40:31.551Z,60.80
2017-09-22T13:42:58.981Z,62.50
2017-09-22T13:45:26.417Z,61.10
2017-09-22T13:47:53.893Z,65.00
2017-09-22T13:50:21.316Z,68.40
2017-09-22T13:52:48.743Z,70.30
2017-09-22T13:55:16.182Z,62.30
2017-09-22T13:57:43.637Z,67.20
2017-09-22T14:00:11.076Z,69.40
2017-09-22T14:02:38.508Z,70.10
2017-09-22T14:05:05.943Z,70.20
2017-09-22T14:07:34.913Z,70.80
2017-09-22T14:10:02.344Z,70.80
2017-09-22T14:12:29.774Z,69.10
2017-09-22T14:14:58.035Z,71.80
2017-09-22T14:17:26.242Z,72.40
2017-09-22T14:19:53.672Z,72.40
2017-09-22T14:22:21.096Z,72.80
2017-09-22T14:24:48.527Z,70.80
2017-09-22T14:27:15.952Z,71.10
2017-09-22T14:29:43.384Z,72.90
2017-09-22T14:32:11.578Z,75.20
2017-09-22T14:34:40.029Z,75.10
2017-09-22T14:37:07.460Z,74.40
2017-09-22T14:39:34.893Z,76.00
2017-09-22T14:42:02.312Z,74.60
2017-09-22T14:44:30.505Z,73.70
2017-09-22T14:46:57.972Z,73.70
2017-09-22T14:49:25.398Z,75.10
2017-09-22T14:51:53.591Z,76.20
2017-09-22T14:54:21.023Z,76.10
2017-09-22T14:56:48.452Z,76.80
2017-09-22T14:59:15.879Z,77.40
2017-09-22T15:01:43.321Z,75.20
2017-09-22T15:04:10.791Z,76.10
2017-09-22T15:06:38.223Z,76.20
2017-09-22T15:09:05.648Z,75.80
2017-09-22T15:11:33.081Z,75.70
2017-09-22T15:14:00.507Z,77.10
2017-09-22T15:16:27.927Z,76.90
2017-09-22T15:18:56.135Z,76.10
2017-09-22T15:21:23.555Z,76.10
2017-09-22T15:23:51.032Z,78.20
2017-09-22T15:26:19.237Z,78.00
2017-09-22T15:28:46.664Z,78.70
2017-09-22T15:31:14.858Z,80.00
2017-09-22T15:33:42.281Z,80.00
2017-09-22T15:36:10.558Z,79.40
2017-09-22T15:38:38.757Z,80.20
2017-09-22T15:41:06.182Z,79.60
2017-09-22T15:43:33.616Z,79.70
2017-09-22T15:46:01.047Z,79.10
2017-09-22T15:48:28.480Z,78.70
2017-09-22T15:50:55.912Z,79.30
2017-09-22T15:53:23.340Z,79.30
2017-09-22T15:55:50.771Z,79.80
2017-09-22T15:58:18.196Z,80.60
2017-09-22T16:00:46.710Z,79.30
2017-09-22T16:03:15.137Z,79.20
2017-09-22T16:05:42.595Z,79.50
2017-09-22T16:08:10.031Z,79.90
2017-09-22T16:10:37.460Z,80.10
2017-09-22T16:13:04.884Z,80.00
2017-09-22T16:15:33.080Z,80.80
2017-09-22T16:18:00.506Z,80.80
2017-09-22T16:20:28.708Z,81.80
2017-09-22T16:22:56.146Z,81.80
2017-09-22T16:25:23.565Z,82.20
2017-09-22T16:27:51.000Z,82.70
2017-09-22T16:30:18.450Z,82.40
2017-09-22T16:32:45.882Z,82.30
2017-09-22T16:35:14.141Z,82.40
2017-09-22T16:37:42.337Z,82.80
2017-09-22T16:40:09.786Z,82.80
2017-09-22T16:42:37.977Z,83.00
2017-09-22T16:45:05.412Z,83.00
2017-09-22T16:47:33.619Z,83.30
2017-09-22T16:50:01.045Z,83.30
2017-09-22T16:52:29.250Z,83.80
2017-09-22T16:54:56.724Z,83.80
2017-09-22T16:57:24.166Z,84.00
2017-09-22T16:59:51.589Z,84.00
2017-09-22T17:02:19.785Z,84.10
2017-09-22T17:04:47.210Z,83.40
2017-09-22T17:07:15.408Z,84.10
2017-09-22T17:09:42.845Z,83.90
2017-09-22T17:12:10.269Z,84.40
2017-09-22T17:14:37.705Z,84.50
2017-09-22T17:17:05.132Z,84.70
2017-09-22T17:19:32.555Z,85.00
2017-09-22T17:21:59.993Z,85.40
2017-09-22T17:24:27.427Z,84.70
2017-09-22T17:26:54.869Z,85.60
2017-09-22T17:29:22.296Z,85.30
2017-09-22T17:31:50.497Z,84.30
2017-09-22T17:34:17.934Z,84.30
2017-09-22T17:36:46.133Z,84.60
2017-09-22T17:39:13.552Z,84.60
2017-09-22T17:41:41.761Z,82.20
2017-09-22T17:44:09.188Z,82.20
2017-09-22T17:46:37.412Z,81.60
2017-09-22T17:49:04.831Z,82.30
2017-09-22T17:51:33.031Z,82.00
2017-09-22T17:54:00.454Z,81.90
2017-09-22T17:56:28.670Z,83.90
2017-09-22T17:58:56.112Z,83.80
2017-09-22T18:01:23.545Z,85.20
2017-09-22T18:03:51.757Z,85.90
2017-09-22T18:06:19.185Z,85.80
2017-09-22T18:08:46.889Z,85.70
2017-09-22T18:11:14.321Z,85.80
2017-09-22T18:13:41.766Z,86.00
2017-09-22T18:16:09.205Z,86.20
2017-09-22T18:18:37.408Z,86.70
2017-09-22T18:21:04.849Z,86.70
2017-09-22T18:23:33.053Z,87.30
2017-09-22T18:26:00.489Z,87.30
2017-09-22T18:28:27.941Z,87.50
2017-09-22T18:30:56.141Z,87.70
2017-09-22T18:33:23.585Z,87.70
2017-09-22T18:35:51.015Z,87.70
2017-09-22T18:38:19.228Z,88.10
2017-09-22T18:40:46.673Z,88.00
2017-09-22T18:43:14.112Z,88.10
2017-09-22T18:45:42.419Z,88.30
2017-09-22T18:48:09.901Z,88.30
2017-09-22T18:50:37.354Z,88.80
2017-09-22T18:53:04.792Z,88.90
2017-09-22T18:55:32.234Z,89.90
2017-09-22T18:57:59.683Z,90.00
2017-09-22T19:00:27.117Z,90.10
2017-09-22T19:02:55.321Z,90.50
2017-09-22T19:05:22.768Z,90.50
2017-09-22T19:07:50.963Z,90.50
2017-09-22T19:10:18.400Z,90.50
2017-09-22T19:12:46.600Z,90.80
2017-09-22T19:15:14.044Z,90.80
2017-09-22T19:17:41.482Z,90.70
2017-09-22T19:20:09.749Z,90.80
2017-09-22T19:22:37.943Z,91.00
2017-09-22T19:25:05.379Z,91.00
2017-09-22T19:27:33.581Z,91.10
2017-09-22T19:30:01.031Z,91.10
2017-09-22T19:32:28.457Z,91.20
2017-09-22T19:34:55.898Z,91.10
2017-09-22T19:37:23.422Z,91.20
2017-09-22T19:39:50.941Z,91.00
2017-09-22T19:42:19.141Z,91.30
2017-09-22T19:44:46.833Z,91.20
2017-09-22T19:47:14.272Z,91.30
2017-09-22T19:49:41.700Z,91.30
2017-09-22T19:52:09.902Z,91.30
2017-09-22T19:54:37.336Z,91.30
2017-09-22T19:57:04.879Z,91.30
2017-09-22T19:59:33.098Z,91.20
2017-09-22T20:02:00.530Z,91.20
2017-09-22T20:04:28.729Z,91.60
2017-09-22T20:06:56.163Z,91.60
2017-09-22T20:09:23.595Z,91.70
2017-09-22T20:11:51.815Z,92.10
2017-09-22T20:14:22.625Z,91.80
2017-09-22T20:16:50.837Z,92.10
2017-09-22T20:19:18.270Z,92.10
2017-09-22T20:21:45.708Z,92.00
2017-09-22T20:24:13.904Z,91.70
2017-09-22T20:26:41.416Z,91.70
2017-09-22T20:29:08.900Z,91.70
2017-09-22T20:31:37.118Z,91.90
2017-09-22T20:34:04.553Z,91.90
2017-09-22T20:36:32.094Z,92.20
2017-09-22T20:39:00.348Z,91.80
2017-09-22T20:41:27.784Z,91.80
2017-09-22T20:43:55.276Z,91.90
2017-09-22T20:46:23.500Z,91.80
2017-09-22T20:48:50.931Z,91.70
2017-09-22T20:51:18.459Z,92.10
2017-09-22T20:53:46.736Z,91.80
2017-09-22T20:56:14.944Z,91.80
2017-09-22T20:58:42.373Z,91.80
2017-09-22T21:01:10.585Z,91.70
2017-09-22T21:03:38.016Z,91.70
2017-09-22T21:06:05.452Z,91.60
2017-09-22T21:08:32.893Z,91.70
2017-09-22T21:11:00.316Z,91.70
2017-09-22T21:13:27.773Z,91.80
2017-09-22T21:15:55.196Z,91.70
2017-09-22T21:18:23.401Z,91.40
2017-09-22T21:20:50.837Z,91.40
2017-09-22T21:23:18.272Z,91.40
2017-09-22T21:25:46.477Z,91.60
2017-09-22T21:28:13.919Z,91.60
2017-09-22T21:30:41.348Z,91.90
2017-09-22T21:33:08.789Z,92.10
2017-09-22T21:35:36.240Z,92.00
2017-09-22T21:38:03.681Z,92.00
2017-09-22T21:40:31.115Z,92.00
2017-09-22T21:42:58.554Z,92.00
2017-09-22T21:45:26.744Z,92.10
2017-09-22T21:47:54.193Z,92.10
2017-09-22T21:50:22.390Z,92.10
2017-09-22T21:52:51.104Z,92.10
2017-09-22T21:55:18.536Z,92.10
2017-09-22T21:57:45.987Z,92.10
2017-09-22T22:00:13.411Z,92.20
2017-09-22T22:02:41.623Z,92.30
2017-09-22T22:05:14.783Z,92.30
2017-09-22T22:07:43.004Z,92.10
2017-09-22T22:10:10.445Z,92.00
2017-09-22T22:12:37.880Z,92.00
2017-09-22T22:15:05.313Z,92.00
2017-09-22T22:17:32.744Z,92.00
2017-09-22T22:20:00.185Z,92.00
2017-09-22T22:22:27.620Z,91.90
2017-09-22T22:24:55.062Z,91.80
2017-09-22T22:27:22.487Z,91.90
2017-09-22T22:29:49.933Z,92.00
2017-09-22T22:32:17.360Z,92.30
2017-09-22T22:34:44.795Z,92.00
2017-09-22T22:37:12.260Z,92.10
2017-09-22T22:39:39.693Z,92.10
2017-09-22T22:42:07.884Z,92.10
2017-09-22T22:44:35.344Z,92.10
2017-09-22T22:47:03.537Z,92.00
2017-09-22T22:49:31.029Z,92.00
2017-09-22T22:51:58.448Z,91.80
2017-09-22T22:54:25.888Z,91.70
2017-09-22T22:56:53.315Z,91.80
2017-09-22T22:59:21.520Z,91.70
2017-09-22T23:01:48.958Z,91.60
2017-09-22T23:04:17.160Z,91.50
2017-09-22T23:06:44.588Z,91.50
2017-09-22T23:09:12.829Z,91.60
2017-09-22T23:11:40.240Z,91.60
2017-09-22T23:14:07.674Z,91.60
2017-09-22T23:16:35.112Z,91.60
2017-09-22T23:19:02.574Z,91.50
2017-09-22T23:21:30.008Z,91.50
2017-09-22T23:23:57.440Z,91.50
2017-09-22T23:26:26.904Z,91.50
2017-09-22T23:28:55.106Z,92.20
2017-09-22T23:31:22.538Z,91.90
2017-09-22T23:33:50.736Z,91.80
2017-09-22T23:36:18.168Z,91.80
2017-09-22T23:38:46.360Z,91.50
2017-09-22T23:41:13.806Z,91.50
2017-09-22T23:43:42.008Z,91.40
2017-09-22T23:46:09.439Z,91.40
2017-09-22T23:48:37.644Z,91.30
2017-09-22T23:51:05.088Z,91.30
2017-09-22T23:53:32.513Z,91.40
2017-09-22T23:55:59.944Z,91.30
2017-09-22T23:58:27.376Z,91.30
